Time;durP1;ratioP1;P1;durP2;ratioP2;P2;SDS_P1;SDS_P2;PMS_P1;PMS_P2;Temp;Humidity;BMP_temperature;BMP_pressure;BME280_temperature;BME280_humidity;BME280_pressure;Samples;Min_cycle;Max_cycle;Signal;HPM_P1;HPM_P2
2023/08/12 00:00:36;;;;;;;6.88;5.60;;;;;;;;;;4838602;29;20289;-63
2023/08/12 00:03:02;;;;;;;10.05;6.60;;;;;;;;;;4838254;29;20452;-62
2023/08/12 00:05:30;;;;;;;7.15;5.50;;;;;;;;;;4838411;29;20057;-62
2023/08/12 00:07:56;;;;;;;9.32;6.25;;;;;;;;;;4838239;29;20468;-63
2023/08/12 00:10:22;;;;;;;12.57;5.43;;;;;;;;;;4838002;29;20538;-62
2023/08/12 00:12:49;;;;;;;10.18;5.75;;;;;;;;;;4838101;29;20701;-61
2023/08/12 00:15:15;;;;;;;8.52;5.50;;;;;;;;;;4838152;29;20089;-64
2023/08/12 00:17:42;;;;;;;6.57;5.13;;;;;;;;;;4837944;29;20054;-62
2023/08/12 00:20:10;;;;;;;6.38;5.07;;;;;;;;;;4838048;29;20136;-62
2023/08/12 00:22:38;;;;;;;12.18;5.78;;;;;;;;;;4838152;29;20090;-62
2023/08/12 00:25:05;;;;;;;9.50;5.43;;;;;;;;;;4837900;29;20058;-63
2023/08/12 00:27:32;;;;;;;11.70;5.22;;;;;;;;;;4837717;29;20114;-62
2023/08/12 00:29:58;;;;;;;6.60;4.90;;;;;;;;;;4837966;29;20046;-63
2023/08/12 00:32:24;;;;;;;8.55;4.95;;;;;;;;;;4838221;29;20140;-63
2023/08/12 00:34:51;;;;;;;10.95;5.65;;;;;;;;;;4837387;29;20074;-62
2023/08/12 00:37:17;;;;;;;7.22;5.47;;;;;;;;;;4837794;29;20559;-62
2023/08/12 00:39:44;;;;;;;10.63;4.97;;;;;;;;;;4837757;29;20145;-63
2023/08/12 00:42:10;;;;;;;9.15;5.50;;;;;;;;;;4837706;29;20060;-62
2023/08/12 00:44:37;;;;;;;13.50;6.35;;;;;;;;;;4835422;29;20050;-62
2023/08/12 00:47:03;;;;;;;9.50;4.68;;;;;;;;;;4837416;29;20090;-62
2023/08/12 00:49:31;;;;;;;5.07;4.38;;;;;;;;;;4837685;29;20642;-62
2023/08/12 00:51:57;;;;;;;6.53;4.68;;;;;;;;;;4838082;29;20114;-62
2023/08/12 00:54:25;;;;;;;7.30;4.50;;;;;;;;;;4837954;29;20042;-60
2023/08/12 00:56:53;;;;;;;5.18;4.20;;;;;;;;;;4837900;29;20153;-60
2023/08/12 00:59:20;;;;;;;7.35;4.97;;;;;;;;;;4837483;29;20050;-60
2023/08/12 01:01:47;;;;;;;11.35;4.80;;;;;;;;;;4837391;29;20134;-64
2023/08/12 01:04:13;;;;;;;7.97;4.90;;;;;;;;;;4837981;29;20120;-62
2023/08/12 01:06:40;;;;;;;6.78;4.25;;;;;;;;;;4837500;29;20050;-62
2023/08/12 01:09:07;;;;;;;7.57;4.47;;;;;;;;;;4837710;29;20380;-62
2023/08/12 01:11:49;;;;;;;6.15;4.25;;;;;;;;;;4837123;29;20371;-61
2023/08/12 01:14:28;;;;;;;9.27;4.60;;;;;;;;;;4821129;29;20053;-62
2023/08/12 01:17:03;;;;;;;15.20;4.97;;;;;;;;;;4837918;29;20317;-60
2023/08/12 01:19:30;;;;;;;8.00;4.90;;;;;;;;;;4837694;29;20395;-62
2023/08/12 01:21:59;;;;;;;9.77;5.32;;;;;;;;;;4837544;29;20133;-62
2023/08/12 01:24:25;;;;;;;7.35;4.63;;;;;;;;;;4837369;29;20237;-62
2023/08/12 01:26:52;;;;;;;8.40;4.25;;;;;;;;;;4837399;29;20085;-61
2023/08/12 01:29:19;;;;;;;7.40;4.97;;;;;;;;;;4837182;29;20060;-62
2023/08/12 01:31:49;;;;;;;6.05;4.20;;;;;;;;;;4837532;29;20057;-62
2023/08/12 01:34:30;;;;;;;9.20;5.05;;;;;;;;;;4837491;29;20089;-63
2023/08/12 01:36:58;;;;;;;15.13;4.65;;;;;;;;;;4837815;29;20114;-63
2023/08/12 01:39:26;;;;;;;5.38;3.90;;;;;;;;;;4837748;29;20061;-61
2023/08/12 01:41:53;;;;;;;6.15;4.72;;;;;;;;;;4837714;29;20057;-62
2023/08/12 01:44:20;;;;;;;8.07;4.38;;;;;;;;;;4837700;29;20054;-60
2023/08/12 01:46:46;;;;;;;7.22;4.25;;;;;;;;;;4840712;29;20540;-62
2023/08/12 01:49:13;;;;;;;8.85;5.00;;;;;;;;;;4840599;29;20384;-62
2023/08/12 01:51:39;;;;;;;8.90;4.68;;;;;;;;;;4840558;29;20118;-63
2023/08/12 01:54:06;;;;;;;6.05;4.03;;;;;;;;;;4840499;29;20145;-62
2023/08/12 01:56:32;;;;;;;5.70;4.10;;;;;;;;;;4840553;29;20137;-62
2023/08/12 01:58:58;;;;;;;6.68;4.35;;;;;;;;;;4840737;29;20114;-60
2023/08/12 02:01:25;;;;;;;6.65;4.68;;;;;;;;;;4840917;29;20052;-63
2023/08/12 02:03:51;;;;;;;10.93;4.30;;;;;;;;;;4840716;29;20050;-62
2023/08/12 02:06:19;;;;;;;11.73;4.78;;;;;;;;;;4840533;29;20510;-59
2023/08/12 02:08:46;;;;;;;6.80;4.18;;;;;;;;;;4840399;29;20093;-60
2023/08/12 02:11:12;;;;;;;5.53;3.95;;;;;;;;;;4839816;29;20510;-60
2023/08/12 02:13:38;;;;;;;6.95;4.25;;;;;;;;;;4840680;29;20085;-62
2023/08/12 02:16:05;;;;;;;6.60;4.80;;;;;;;;;;4840151;29;20533;-62
2023/08/12 02:18:31;;;;;;;9.38;4.80;;;;;;;;;;4840202;29;20050;-62
2023/08/12 02:20:58;;;;;;;8.40;4.32;;;;;;;;;;4840350;29;20144;-62
2023/08/12 02:23:24;;;;;;;7.25;4.50;;;;;;;;;;4840320;29;20104;-62
2023/08/12 02:25:51;;;;;;;6.75;4.38;;;;;;;;;;4840589;29;20060;-63
2023/08/12 02:28:18;;;;;;;5.40;4.65;;;;;;;;;;4840076;29;20057;-62
2023/08/12 02:30:44;;;;;;;9.13;4.90;;;;;;;;;;4839734;29;20265;-59
2023/08/12 02:33:11;;;;;;;5.57;4.20;;;;;;;;;;4839816;29;20077;-62
2023/08/12 02:35:38;;;;;;;7.38;4.45;;;;;;;;;;4839801;29;20054;-62
2023/08/12 02:38:04;;;;;;;5.95;5.13;;;;;;;;;;4823421;29;20097;-62
2023/08/12 02:40:31;;;;;;;5.85;4.18;;;;;;;;;;4840171;29;20089;-62
2023/08/12 02:42:57;;;;;;;5.63;4.30;;;;;;;;;;4839838;29;20089;-62
2023/08/12 02:45:24;;;;;;;6.80;5.15;;;;;;;;;;4840291;29;20129;-62
2023/08/12 02:47:50;;;;;;;7.93;5.03;;;;;;;;;;4839899;29;20194;-62
2023/08/12 02:50:17;;;;;;;5.28;4.57;;;;;;;;;;4840068;29;20137;-61
2023/08/12 02:52:43;;;;;;;5.05;4.55;;;;;;;;;;4839327;29;20226;-62
2023/08/12 02:55:09;;;;;;;7.72;5.10;;;;;;;;;;4839436;29;20085;-62
2023/08/12 02:57:36;;;;;;;7.85;4.50;;;;;;;;;;4838543;29;20120;-62
2023/08/12 03:00:04;;;;;;;8.88;4.55;;;;;;;;;;4839484;29;20096;-62
2023/08/12 03:02:30;;;;;;;9.25;4.82;;;;;;;;;;4839582;29;20159;-61
2023/08/12 03:04:56;;;;;;;6.88;4.47;;;;;;;;;;4839293;29;20578;-62
2023/08/12 03:07:23;;;;;;;9.93;5.20;;;;;;;;;;4839478;29;20058;-61
2023/08/12 03:09:50;;;;;;;9.93;4.70;;;;;;;;;;4839141;29;20054;-62
2023/08/12 03:12:16;;;;;;;6.13;4.38;;;;;;;;;;4839416;29;20110;-61
2023/08/12 03:14:42;;;;;;;7.15;4.63;;;;;;;;;;4838975;29;20110;-63
2023/08/12 03:17:09;;;;;;;8.50;4.57;;;;;;;;;;4839006;29;20054;-63
2023/08/12 03:19:36;;;;;;;7.28;4.60;;;;;;;;;;4838664;29;20053;-63
2023/08/12 03:22:02;;;;;;;10.40;4.75;;;;;;;;;;4838853;29;20132;-62
2023/08/12 03:24:29;;;;;;;7.53;4.38;;;;;;;;;;4839158;29;20137;-63
2023/08/12 03:26:55;;;;;;;8.43;4.70;;;;;;;;;;4839076;29;20164;-62
2023/08/12 03:29:22;;;;;;;8.15;4.78;;;;;;;;;;4838982;29;20093;-61
2023/08/12 03:31:48;;;;;;;7.47;4.70;;;;;;;;;;4838984;29;20058;-63
2023/08/12 03:34:14;;;;;;;7.95;5.32;;;;;;;;;;4839023;29;20056;-62
2023/08/12 03:36:41;;;;;;;7.30;5.32;;;;;;;;;;4838966;29;20056;-63
2023/08/12 03:39:07;;;;;;;11.40;4.93;;;;;;;;;;4838861;29;20060;-62
2023/08/12 03:41:34;;;;;;;8.98;4.20;;;;;;;;;;4838581;29;20057;-62
2023/08/12 03:44:00;;;;;;;9.20;4.95;;;;;;;;;;4838858;29;20142;-62
2023/08/12 03:46:27;;;;;;;6.75;5.25;;;;;;;;;;4838524;29;20045;-62
2023/08/12 03:48:53;;;;;;;10.80;5.10;;;;;;;;;;4838688;29;20070;-63
2023/08/12 03:51:20;;;;;;;14.65;5.20;;;;;;;;;;4838289;29;20072;-62
2023/08/12 03:53:46;;;;;;;6.70;4.50;;;;;;;;;;4838820;29;20058;-63
2023/08/12 03:56:15;;;;;;;7.15;5.03;;;;;;;;;;4838586;29;20054;-62
2023/08/12 03:58:42;;;;;;;7.63;4.43;;;;;;;;;;4837886;29;20045;-62
2023/08/12 04:01:08;;;;;;;9.57;5.55;;;;;;;;;;4838694;29;20061;-62
2023/08/12 04:03:35;;;;;;;8.63;4.88;;;;;;;;;;4838325;29;20046;-62
2023/08/12 04:06:03;;;;;;;6.10;5.25;;;;;;;;;;4838715;29;20054;-62
2023/08/12 04:08:30;;;;;;;8.82;5.82;;;;;;;;;;4837834;29;20053;-62
2023/08/12 04:10:56;;;;;;;7.85;5.22;;;;;;;;;;4837876;29;20068;-62
2023/08/12 04:13:23;;;;;;;5.97;4.80;;;;;;;;;;4837961;29;20058;-62
2023/08/12 04:15:50;;;;;;;13.93;6.45;;;;;;;;;;4838320;29;20518;-62
2023/08/12 04:18:16;;;;;;;10.40;5.40;;;;;;;;;;4838381;29;20092;-62
2023/08/12 04:20:45;;;;;;;9.48;5.50;;;;;;;;;;4836899;29;20581;-62
2023/08/12 04:23:11;;;;;;;11.05;5.57;;;;;;;;;;4821701;29;20050;-63
2023/08/12 04:25:38;;;;;;;8.68;5.53;;;;;;;;;;4837778;29;20438;-63
2023/08/12 04:28:04;;;;;;;7.70;5.18;;;;;;;;;;4837713;29;20106;-62
2023/08/12 04:30:31;;;;;;;13.75;5.20;;;;;;;;;;4838069;29;20054;-62
2023/08/12 04:32:57;;;;;;;6.65;4.82;;;;;;;;;;4839293;29;20081;-63
2023/08/12 04:35:23;;;;;;;11.52;5.47;;;;;;;;;;4838031;29;20058;-61
2023/08/12 04:37:50;;;;;;;7.35;4.60;;;;;;;;;;4838612;29;20082;-64
2023/08/12 04:40:16;;;;;;;8.35;4.97;;;;;;;;;;4838260;29;20503;-62
2023/08/12 04:42:43;;;;;;;8.23;5.15;;;;;;;;;;4838230;29;20057;-62
2023/08/12 04:45:10;;;;;;;11.00;5.30;;;;;;;;;;4837799;29;20089;-60
2023/08/12 04:47:37;;;;;;;9.68;5.65;;;;;;;;;;4837531;29;20085;-63
2023/08/12 04:50:03;;;;;;;9.05;5.25;;;;;;;;;;4837654;29;20480;-61
2023/08/12 04:52:30;;;;;;;8.88;5.25;;;;;;;;;;4837455;29;20503;-61
2023/08/12 04:54:56;;;;;;;11.43;5.10;;;;;;;;;;4837639;29;20473;-63
2023/08/12 04:57:23;;;;;;;7.20;4.93;;;;;;;;;;4839681;29;20725;-62
2023/08/12 04:59:49;;;;;;;6.57;4.47;;;;;;;;;;4837986;29;20050;-62
2023/08/12 05:02:18;;;;;;;10.07;5.40;;;;;;;;;;4837819;29;20129;-62
2023/08/12 05:04:48;;;;;;;6.63;4.93;;;;;;;;;;4837520;29;20089;-62
2023/08/12 05:07:15;;;;;;;5.95;4.63;;;;;;;;;;4837142;29;20062;-62
2023/08/12 05:09:43;;;;;;;7.32;4.53;;;;;;;;;;4837589;29;20058;-61
2023/08/12 05:12:10;;;;;;;7.38;4.63;;;;;;;;;;4837471;29;20059;-62
2023/08/12 05:14:38;;;;;;;8.50;4.53;;;;;;;;;;4837771;29;20050;-61
2023/08/12 05:17:05;;;;;;;9.48;4.32;;;;;;;;;;4837336;29;20093;-62
2023/08/12 05:19:32;;;;;;;6.75;5.40;;;;;;;;;;4838260;29;20308;-61
2023/08/12 05:21:58;;;;;;;9.88;4.35;;;;;;;;;;4841094;29;20046;-62
2023/08/12 05:24:25;;;;;;;7.82;4.82;;;;;;;;;;4841485;29;20078;-62
2023/08/12 05:26:51;;;;;;;6.68;4.82;;;;;;;;;;4824692;29;20050;-62
2023/08/12 05:29:18;;;;;;;7.93;4.63;;;;;;;;;;4841340;29;20165;-62
2023/08/12 05:31:45;;;;;;;6.68;4.82;;;;;;;;;;4841211;29;20092;-61
2023/08/12 05:34:12;;;;;;;5.45;4.53;;;;;;;;;;4841201;29;20061;-62
2023/08/12 05:36:39;;;;;;;6.57;4.90;;;;;;;;;;4841181;29;20069;-62
2023/08/12 05:39:05;;;;;;;4.63;4.13;;;;;;;;;;4841045;29;20587;-63
2023/08/12 05:41:32;;;;;;;6.85;4.38;;;;;;;;;;4839603;29;20050;-61
2023/08/12 05:43:58;;;;;;;11.18;5.00;;;;;;;;;;4840672;29;20133;-62
2023/08/12 05:46:25;;;;;;;10.77;4.63;;;;;;;;;;4841081;29;20146;-61
2023/08/12 05:48:51;;;;;;;8.45;4.50;;;;;;;;;;4840693;29;20141;-63
2023/08/12 05:51:18;;;;;;;7.25;4.45;;;;;;;;;;4841068;29;20543;-60
2023/08/12 05:53:45;;;;;;;7.05;4.38;;;;;;;;;;4840695;29;20707;-59
2023/08/12 05:56:11;;;;;;;9.32;5.07;;;;;;;;;;4840622;29;20134;-62
2023/08/12 05:58:38;;;;;;;10.45;4.70;;;;;;;;;;4838045;29;20057;-62
2023/08/12 06:01:04;;;;;;;9.68;4.93;;;;;;;;;;4843368;29;20245;-61
2023/08/12 06:03:31;;;;;;;8.05;5.47;;;;;;;;;;4857909;29;20060;-61
2023/08/12 06:05:57;;;;;;;14.75;5.68;;;;;;;;;;4858664;29;20060;-62
2023/08/12 06:08:24;;;;;;;8.95;6.05;;;;;;;;;;4858927;29;20052;-63
2023/08/12 06:10:50;;;;;;;6.63;5.13;;;;;;;;;;4858548;29;20061;-62
2023/08/12 06:13:17;;;;;;;7.53;5.22;;;;;;;;;;4858636;29;20136;-61
2023/08/12 06:15:43;;;;;;;7.65;4.55;;;;;;;;;;4858320;29;20054;-62
2023/08/12 06:18:10;;;;;;;8.75;4.90;;;;;;;;;;4842042;29;20073;-63
2023/08/12 06:20:36;;;;;;;8.95;4.82;;;;;;;;;;4846792;29;20684;-60
2023/08/12 06:23:03;;;;;;;7.90;4.90;;;;;;;;;;4858431;29;20748;-62
2023/08/12 06:25:29;;;;;;;7.30;4.53;;;;;;;;;;4843974;29;20141;-61
2023/08/12 06:27:58;;;;;;;5.70;4.78;;;;;;;;;;4838446;29;20074;-61
2023/08/12 06:30:24;;;;;;;8.32;4.78;;;;;;;;;;4835984;29;20388;-62
2023/08/12 06:32:51;;;;;;;8.65;4.45;;;;;;;;;;4841987;29;20107;-61
2023/08/12 06:35:17;;;;;;;8.43;5.07;;;;;;;;;;4828132;29;20051;-61
2023/08/12 06:37:44;;;;;;;12.15;4.50;;;;;;;;;;4832812;29;20655;-63
2023/08/12 06:40:10;;;;;;;11.70;5.22;;;;;;;;;;4828751;29;20526;-61
2023/08/12 06:42:37;;;;;;;9.05;4.90;;;;;;;;;;4858090;29;20078;-61
2023/08/12 06:45:03;;;;;;;8.13;4.82;;;;;;;;;;4841000;29;20056;-61
2023/08/12 06:47:31;;;;;;;13.07;5.53;;;;;;;;;;4838510;29;20054;-63
2023/08/12 06:49:58;;;;;;;8.20;4.55;;;;;;;;;;4835119;29;20063;-61
2023/08/12 06:52:24;;;;;;;5.28;4.13;;;;;;;;;;4836585;29;20491;-62
2023/08/12 06:54:51;;;;;;;15.77;5.18;;;;;;;;;;4836580;29;20108;-64
2023/08/12 06:57:17;;;;;;;7.20;4.57;;;;;;;;;;4854062;29;20054;-61
2023/08/12 06:59:44;;;;;;;10.60;4.35;;;;;;;;;;4839146;29;20540;-61
2023/08/12 07:02:11;;;;;;;7.78;4.35;;;;;;;;;;4839958;29;20467;-63
2023/08/12 07:04:38;;;;;;;4.65;3.83;;;;;;;;;;4838046;29;20137;-63
2023/08/12 07:07:05;;;;;;;8.63;4.20;;;;;;;;;;4837380;29;20220;-62
2023/08/12 07:09:31;;;;;;;9.65;4.60;;;;;;;;;;4837324;29;20054;-62
2023/08/12 07:11:58;;;;;;;6.13;4.13;;;;;;;;;;4837112;29;20719;-62
2023/08/12 07:14:25;;;;;;;5.50;4.38;;;;;;;;;;4830736;29;20505;-63
2023/08/12 07:16:52;;;;;;;6.40;4.22;;;;;;;;;;4826130;29;20110;-59
2023/08/12 07:19:18;;;;;;;6.45;4.82;;;;;;;;;;4829199;29;20060;-63
2023/08/12 07:21:45;;;;;;;9.20;4.50;;;;;;;;;;4811737;29;20439;-60
2023/08/12 07:24:11;;;;;;;5.13;4.18;;;;;;;;;;4835866;29;20046;-61
2023/08/12 07:26:38;;;;;;;11.07;4.15;;;;;;;;;;4837238;29;20084;-61
2023/08/12 07:29:04;;;;;;;14.35;5.10;;;;;;;;;;4837502;29;20140;-61
2023/08/12 07:31:30;;;;;;;8.05;4.38;;;;;;;;;;4837209;29;20097;-62
2023/08/12 07:33:57;;;;;;;8.48;4.10;;;;;;;;;;4837592;29;20046;-63
2023/08/12 07:36:23;;;;;;;10.40;5.18;;;;;;;;;;4821471;29;20074;-65
2023/08/12 07:38:50;;;;;;;6.53;4.35;;;;;;;;;;4827071;29;20062;-63
2023/08/12 07:41:16;;;;;;;5.03;4.10;;;;;;;;;;4837378;29;20476;-62
2023/08/12 07:43:43;;;;;;;11.85;4.95;;;;;;;;;;4837047;29;20642;-62
2023/08/12 07:46:09;;;;;;;8.45;4.45;;;;;;;;;;4836999;29;20061;-62
2023/08/12 07:48:37;;;;;;;7.57;4.65;;;;;;;;;;4837155;29;20086;-61
2023/08/12 07:51:03;;;;;;;5.88;4.15;;;;;;;;;;4837434;29;20050;-60
2023/08/12 07:53:30;;;;;;;7.43;4.30;;;;;;;;;;4837202;29;20053;-61
2023/08/12 07:55:56;;;;;;;6.63;4.70;;;;;;;;;;4836963;29;20513;-62
2023/08/12 07:58:23;;;;;;;5.97;3.63;;;;;;;;;;4821130;29;20488;-61
2023/08/12 08:00:52;;;;;;;10.82;4.95;;;;;;;;;;4827248;29;20053;-60
2023/08/12 08:03:18;;;;;;;13.70;4.22;;;;;;;;;;4837536;29;20073;-61
2023/08/12 08:05:46;;;;;;;9.13;4.13;;;;;;;;;;4836462;29;20056;-63
2023/08/12 08:08:13;;;;;;;5.20;3.67;;;;;;;;;;4837233;29;20509;-60
2023/08/12 08:10:40;;;;;;;7.00;4.22;;;;;;;;;;4836085;29;20066;-62
2023/08/12 08:13:06;;;;;;;5.40;4.10;;;;;;;;;;4837028;29;20468;-61
2023/08/12 08:15:32;;;;;;;5.25;4.35;;;;;;;;;;4835674;29;20058;-61
2023/08/12 08:17:59;;;;;;;6.60;4.10;;;;;;;;;;4836827;29;20579;-61
2023/08/12 08:20:29;;;;;;;8.55;3.92;;;;;;;;;;4837090;29;20058;-61
2023/08/12 08:22:55;;;;;;;5.22;4.65;;;;;;;;;;4837248;29;20536;-61
2023/08/12 08:25:22;;;;;;;7.95;4.32;;;;;;;;;;4836765;29;20054;-61
2023/08/12 08:27:48;;;;;;;6.90;4.07;;;;;;;;;;4836485;29;20141;-62
2023/08/12 08:30:15;;;;;;;5.88;4.00;;;;;;;;;;4837386;29;20106;-61
2023/08/12 08:32:41;;;;;;;7.82;4.55;;;;;;;;;;4833275;29;20092;-61
2023/08/12 08:35:08;;;;;;;5.00;4.28;;;;;;;;;;4834780;29;20138;-62
2023/08/12 08:37:34;;;;;;;5.97;4.82;;;;;;;;;;4822774;29;20245;-62
2023/08/12 08:40:01;;;;;;;7.72;4.40;;;;;;;;;;4835865;29;20058;-62
2023/08/12 08:42:29;;;;;;;9.20;4.68;;;;;;;;;;4836048;29;20074;-61
2023/08/12 08:44:57;;;;;;;7.00;5.05;;;;;;;;;;4835640;29;20046;-61
2023/08/12 08:47:27;;;;;;;8.93;5.90;;;;;;;;;;4836504;29;20046;-62
2023/08/12 08:49:55;;;;;;;10.30;5.00;;;;;;;;;;4836104;29;20050;-63
2023/08/12 08:52:23;;;;;;;8.98;5.45;;;;;;;;;;4837131;29;20085;-61
2023/08/12 08:54:49;;;;;;;7.53;4.82;;;;;;;;;;4834696;29;20150;-63
2023/08/12 08:57:19;;;;;;;8.32;5.68;;;;;;;;;;4836226;29;20065;-63
2023/08/12 08:59:52;;;;;;;9.55;4.68;;;;;;;;;;4835371;29;20110;-62
2023/08/12 09:02:23;;;;;;;7.80;5.05;;;;;;;;;;4820053;29;20085;-66
2023/08/12 09:04:49;;;;;;;12.93;5.05;;;;;;;;;;4824396;29;20073;-63
2023/08/12 09:07:16;;;;;;;7.20;5.07;;;;;;;;;;4836088;29;20111;-62
2023/08/12 09:09:48;;;;;;;5.53;4.43;;;;;;;;;;4835472;29;20133;-63
2023/08/12 09:12:16;;;;;;;8.38;4.57;;;;;;;;;;4836103;29;20413;-63
2023/08/12 09:14:43;;;;;;;8.18;4.53;;;;;;;;;;4833487;29;20049;-62
2023/08/12 09:17:10;;;;;;;8.30;4.80;;;;;;;;;;4836072;29;20072;-61
2023/08/12 09:19:36;;;;;;;5.75;4.50;;;;;;;;;;4834314;29;20140;-61
2023/08/12 09:22:04;;;;;;;9.95;4.07;;;;;;;;;;4841773;29;20141;-62
2023/08/12 09:24:30;;;;;;;7.07;4.72;;;;;;;;;;4842143;29;20080;-61
2023/08/12 09:26:57;;;;;;;10.07;4.22;;;;;;;;;;4836281;29;20643;-62
2023/08/12 09:29:28;;;;;;;9.20;4.30;;;;;;;;;;4836196;29;20046;-62
2023/08/12 09:32:04;;;;;;;10.02;4.35;;;;;;;;;;4836148;29;20054;-64
2023/08/12 09:34:31;;;;;;;7.80;4.72;;;;;;;;;;4835980;29;20118;-61
2023/08/12 09:36:58;;;;;;;5.68;4.30;;;;;;;;;;4822741;29;20144;-62
2023/08/12 09:39:25;;;;;;;5.80;3.83;;;;;;;;;;4823627;29;20118;-62
2023/08/12 09:41:53;;;;;;;13.00;4.90;;;;;;;;;;4835664;29;20518;-62
2023/08/12 09:44:20;;;;;;;5.90;4.03;;;;;;;;;;4834453;29;20137;-61
2023/08/12 09:46:47;;;;;;;6.18;4.47;;;;;;;;;;4835842;29;20122;-63
2023/08/12 09:49:13;;;;;;;7.10;5.22;;;;;;;;;;4836081;29;20056;-63
2023/08/12 09:51:42;;;;;;;8.40;4.53;;;;;;;;;;4828490;29;20054;-62
2023/08/12 09:54:09;;;;;;;6.60;4.22;;;;;;;;;;4836060;29;20069;-63
2023/08/12 09:56:36;;;;;;;8.88;4.10;;;;;;;;;;4835686;29;20060;-61
2023/08/12 09:59:05;;;;;;;5.85;4.47;;;;;;;;;;4836008;29;20078;-61
2023/08/12 10:01:31;;;;;;;5.65;4.45;;;;;;;;;;4835433;29;20097;-63
2023/08/12 10:03:58;;;;;;;6.20;4.70;;;;;;;;;;4829248;29;20496;-62
2023/08/12 10:06:25;;;;;;;6.03;3.92;;;;;;;;;;4849596;29;20491;-62
2023/08/12 10:08:52;;;;;;;11.18;4.20;;;;;;;;;;4839300;29;20046;-60
2023/08/12 10:11:19;;;;;;;5.53;4.15;;;;;;;;;;4841703;29;20175;-63
2023/08/12 10:13:46;;;;;;;7.18;4.75;;;;;;;;;;4839197;29;20472;-63
2023/08/12 10:16:13;;;;;;;9.27;4.88;;;;;;;;;;4836828;29;20089;-62
2023/08/12 10:18:40;;;;;;;8.30;4.22;;;;;;;;;;4839032;29;20050;-62
2023/08/12 10:21:11;;;;;;;12.75;4.75;;;;;;;;;;4839333;29;20046;-60
2023/08/12 10:23:38;;;;;;;5.05;4.15;;;;;;;;;;4843777;29;20057;-61
2023/08/12 10:26:06;;;;;;;7.97;4.03;;;;;;;;;;4838125;29;20126;-61
2023/08/12 10:28:36;;;;;;;7.60;4.22;;;;;;;;;;4838898;29;20102;-61
2023/08/12 10:31:04;;;;;;;5.28;3.63;;;;;;;;;;4837125;29;20057;-60
2023/08/12 10:33:36;;;;;;;5.97;4.30;;;;;;;;;;4822915;29;20061;-61
2023/08/12 10:36:02;;;;;;;;;;;;;;;;;;4821896;29;20525;-62
2023/08/12 10:38:29;;;;;;;8.68;3.97;;;;;;;;;;4822727;29;20438;-62
2023/08/12 10:41:14;;;;;;;6.80;4.90;;;;;;;;;;4838357;29;20128;-61
2023/08/12 10:43:50;;;;;;;6.68;3.97;;;;;;;;;;4839193;29;20058;-60
2023/08/12 10:46:27;;;;;;;4.20;3.38;;;;;;;;;;4837912;29;20057;-61
2023/08/12 10:49:13;;;;;;;8.60;3.55;;;;;;;;;;4838758;29;20054;-63
2023/08/12 10:51:45;;;;;;;4.55;3.70;;;;;;;;;;4838823;29;20057;-61
2023/08/12 10:54:30;;;;;;;8.25;4.38;;;;;;;;;;4838248;29;20116;-62
2023/08/12 10:57:08;;;;;;;13.45;4.03;;;;;;;;;;4852165;29;20046;-62
2023/08/12 10:59:44;;;;;;;8.35;3.60;;;;;;;;;;4825171;29;20768;-61
2023/08/12 11:02:24;;;;;;;7.00;3.42;;;;;;;;;;4838654;29;20061;-61
2023/08/12 11:05:00;;;;;;;4.47;3.60;;;;;;;;;;4838334;29;20126;-61
2023/08/12 11:07:34;;;;;;;4.03;3.60;;;;;;;;;;4837466;29;20054;-60
2023/08/12 11:10:12;;;;;;;6.13;4.43;;;;;;;;;;4831653;29;20045;-62
2023/08/12 11:12:40;;;;;;;8.63;3.95;;;;;;;;;;4821677;29;20084;-61
2023/08/12 11:15:07;;;;;;;5.07;3.85;;;;;;;;;;4845876;29;20132;-62
2023/08/12 11:17:35;;;;;;;6.28;3.90;;;;;;;;;;4836837;29;20046;-61
2023/08/12 11:20:06;;;;;;;8.70;4.65;;;;;;;;;;4837904;29;20046;-62
2023/08/12 11:22:36;;;;;;;7.75;4.57;;;;;;;;;;4838702;29;20054;-61
2023/08/12 11:25:10;;;;;;;5.43;3.88;;;;;;;;;;4821469;29;20050;-63
2023/08/12 11:27:38;;;;;;;7.15;4.10;;;;;;;;;;4837255;29;20076;-61
2023/08/12 11:30:05;;;;;;;5.85;4.70;;;;;;;;;;4837702;29;20062;-62
2023/08/12 11:32:32;;;;;;;6.30;4.18;;;;;;;;;;4822405;29;20157;-64
2023/08/12 11:34:59;;;;;;;7.32;4.10;;;;;;;;;;4836636;29;20729;-63
2023/08/12 11:37:25;;;;;;;8.93;4.68;;;;;;;;;;4822707;29;20097;-62
2023/08/12 11:39:52;;;;;;;5.07;3.95;;;;;;;;;;4836415;29;20058;-62
2023/08/12 11:42:19;;;;;;;5.55;4.35;;;;;;;;;;4831846;29;20200;-62
2023/08/12 11:44:45;;;;;;;8.82;3.95;;;;;;;;;;4820869;29;20063;-67
2023/08/12 11:47:12;;;;;;;5.93;4.55;;;;;;;;;;4822853;29;20058;-62
2023/08/12 11:49:38;;;;;;;14.57;4.63;;;;;;;;;;4834289;29;20060;-62
2023/08/12 11:52:05;;;;;;;7.25;5.32;;;;;;;;;;4837312;29;20089;-62
2023/08/12 11:54:32;;;;;;;7.90;4.50;;;;;;;;;;4833719;29;20540;-61
2023/08/12 11:56:59;;;;;;;5.97;4.78;;;;;;;;;;4832992;29;20133;-61
2023/08/12 11:59:26;;;;;;;5.18;4.38;;;;;;;;;;4817461;29;20130;-61
2023/08/12 12:01:54;;;;;;;9.15;4.70;;;;;;;;;;4834290;29;20061;-63
2023/08/12 12:04:21;;;;;;;7.32;4.82;;;;;;;;;;4830663;29;20491;-61
2023/08/12 12:06:48;;;;;;;7.13;5.05;;;;;;;;;;4829371;29;20085;-62
2023/08/12 12:09:15;;;;;;;6.35;4.60;;;;;;;;;;4837339;29;20065;-62
2023/08/12 12:11:41;;;;;;;9.02;4.95;;;;;;;;;;4836827;29;20066;-63
2023/08/12 12:14:09;;;;;;;6.38;5.13;;;;;;;;;;4822655;29;20085;-62
2023/08/12 12:16:45;;;;;;;6.30;4.13;;;;;;;;;;4832885;29;20133;-62
2023/08/12 12:19:17;;;;;;;5.97;4.38;;;;;;;;;;4827382;29;20049;-63
2023/08/12 12:21:45;;;;;;;5.22;3.90;;;;;;;;;;4835249;29;20056;-64
2023/08/12 12:24:11;;;;;;;6.25;4.88;;;;;;;;;;4829078;29;20078;-61
2023/08/12 12:26:38;;;;;;;4.78;3.67;;;;;;;;;;4836213;29;20118;-60
2023/08/12 12:29:07;;;;;;;3.80;3.20;;;;;;;;;;4828414;29;20059;-62
2023/08/12 12:31:36;;;;;;;4.93;3.57;;;;;;;;;;4831936;29;20089;-61
2023/08/12 12:34:05;;;;;;;5.65;3.72;;;;;;;;;;4836626;29;20054;-62
2023/08/12 12:36:36;;;;;;;6.82;3.65;;;;;;;;;;4838991;29;20056;-61
2023/08/12 12:39:02;;;;;;;;;;;;;;;;;;4845894;29;20535;-62
2023/08/12 12:41:29;;;;;;;8.95;3.88;;;;;;;;;;4847323;29;20038;-63
2023/08/12 12:43:56;;;;;;;9.27;3.60;;;;;;;;;;4827403;29;20056;-62
2023/08/12 12:46:22;;;;;;;4.25;3.15;;;;;;;;;;4835801;29;20137;-61
2023/08/12 12:48:49;;;;;;;6.15;3.35;;;;;;;;;;4836404;29;20058;-62
2023/08/12 12:51:15;;;;;;;5.57;4.00;;;;;;;;;;4835923;29;20052;-63
2023/08/12 12:53:42;;;;;;;4.97;3.38;;;;;;;;;;4832727;29;20130;-63
2023/08/12 12:56:10;;;;;;;5.78;3.40;;;;;;;;;;4841928;29;20065;-62
2023/08/12 12:58:37;;;;;;;4.25;3.28;;;;;;;;;;4840461;29;20057;-62
2023/08/12 13:01:04;;;;;;;4.78;3.08;;;;;;;;;;4844744;29;20054;-61
2023/08/12 13:03:31;;;;;;;5.82;3.47;;;;;;;;;;4836573;29;20064;-61
2023/08/12 13:05:58;;;;;;;7.35;3.40;;;;;;;;;;4835396;29;20046;-62
2023/08/12 13:08:25;;;;;;;3.78;3.30;;;;;;;;;;4836214;29;20050;-62
2023/08/12 13:10:52;;;;;;;4.30;2.63;;;;;;;;;;4833820;29;20062;-61
2023/08/12 13:13:19;;;;;;;5.72;3.95;;;;;;;;;;4818182;29;20076;-63
2023/08/12 13:15:46;;;;;;;4.60;3.30;;;;;;;;;;4827925;29;20054;-61
2023/08/12 13:18:13;;;;;;;4.68;3.53;;;;;;;;;;4832741;29;20110;-60
2023/08/12 13:20:40;;;;;;;7.97;3.33;;;;;;;;;;4829496;29;20093;-62
2023/08/12 13:23:06;;;;;;;5.07;3.83;;;;;;;;;;4820152;29;20116;-60
2023/08/12 13:25:33;;;;;;;10.60;3.65;;;;;;;;;;4826544;29;20123;-63
2023/08/12 13:28:01;;;;;;;4.07;2.83;;;;;;;;;;4824043;29;20652;-63
2023/08/12 13:30:27;;;;;;;6.18;3.53;;;;;;;;;;4834247;29;20416;-61
2023/08/12 13:32:54;;;;;;;4.25;3.10;;;;;;;;;;4820004;29;20057;-63
2023/08/12 13:35:21;;;;;;;3.80;3.40;;;;;;;;;;4816152;29;20078;-62
2023/08/12 13:37:48;;;;;;;7.88;3.70;;;;;;;;;;4824231;29;20118;-60
2023/08/12 13:40:15;;;;;;;7.93;2.90;;;;;;;;;;4822793;29;20576;-61
2023/08/12 13:42:42;;;;;;;4.05;2.65;;;;;;;;;;4836262;29;20097;-62
2023/08/12 13:45:09;;;;;;;6.90;2.38;;;;;;;;;;4844585;29;20056;-60
2023/08/12 13:47:36;;;;;;;5.10;2.97;;;;;;;;;;4842287;29;20217;-60
2023/08/12 13:50:02;;;;;;;4.10;2.95;;;;;;;;;;4826051;29;20062;-60
2023/08/12 13:52:29;;;;;;;6.55;2.70;;;;;;;;;;4821537;29;20050;-60
2023/08/12 13:54:55;;;;;;;5.47;2.58;;;;;;;;;;4839296;29;20053;-62
2023/08/12 13:57:22;;;;;;;4.40;2.75;;;;;;;;;;4836197;29;20086;-59
2023/08/12 13:59:48;;;;;;;3.78;2.53;;;;;;;;;;4830438;29;20066;-62
2023/08/12 14:02:15;;;;;;;6.32;3.13;;;;;;;;;;4836188;29;20474;-60
2023/08/12 14:04:41;;;;;;;4.63;3.05;;;;;;;;;;4843032;29;20477;-61
2023/08/12 14:07:08;;;;;;;5.75;2.67;;;;;;;;;;4858356;29;20224;-59
2023/08/12 14:09:34;;;;;;;5.05;2.80;;;;;;;;;;4858074;29;20521;-61
2023/08/12 14:12:01;;;;;;;7.15;2.38;;;;;;;;;;4857681;29;20061;-61
2023/08/12 14:14:28;;;;;;;3.42;2.40;;;;;;;;;;4857977;29;20053;-60
2023/08/12 14:16:54;;;;;;;6.80;3.08;;;;;;;;;;4854658;29;20495;-60
2023/08/12 14:19:21;;;;;;;5.00;2.38;;;;;;;;;;4839823;29;20262;-60
2023/08/12 14:21:47;;;;;;;4.68;2.40;;;;;;;;;;4839635;29;20141;-60
2023/08/12 14:24:14;;;;;;;3.25;2.42;;;;;;;;;;4839635;29;20138;-60
2023/08/12 14:26:40;;;;;;;5.05;2.10;;;;;;;;;;4839633;29;20064;-60
2023/08/12 14:29:07;;;;;;;3.20;1.83;;;;;;;;;;4839794;29;20491;-60
2023/08/12 14:31:34;;;;;;;2.83;1.80;;;;;;;;;;4828629;29;20082;-61
2023/08/12 14:34:01;;;;;;;3.30;2.25;;;;;;;;;;4841509;29;20153;-61
2023/08/12 14:36:28;;;;;;;3.47;2.10;;;;;;;;;;4827531;29;20055;-59
2023/08/12 14:38:54;;;;;;;3.90;2.17;;;;;;;;;;4857699;29;20057;-61
2023/08/12 14:41:21;;;;;;;5.50;2.22;;;;;;;;;;4841961;29;20077;-61